Time;durP1;ratioP1;P1;durP2;ratioP2;P2;SDS_P1;SDS_P2;PMS_P1;PMS_P2;Temp;Humidity;BMP_temperature;BMP_pressure;BME280_temperature;BME280_humidity;BME280_pressure;Samples;Min_cycle;Max_cycle;Signal;HPM_P1;HPM_P2
2021/06/28 00:01:46;;;;;;;15.75;8.77;;;31.10;46.40;;;;;;4326589;33;20098;-38
2021/06/28 00:04:12;;;;;;;15.57;9.32;;;31.20;46.30;;;;;;4326387;33;20165;-37
2021/06/28 00:06:39;;;;;;;14.05;8.85;;;31.30;46.20;;;;;;4326640;33;20163;-36
2021/06/28 00:09:05;;;;;;;18.58;9.60;;;31.40;46.00;;;;;;4363553;32;20089;-37
2021/06/28 00:11:32;;;;;;;13.80;9.18;;;31.60;45.90;;;;;;4385799;32;20066;-38
2021/06/28 00:13:58;;;;;;;10.57;8.45;;;31.70;45.70;;;;;;4386052;32;20078;-37
2021/06/28 00:16:25;;;;;;;13.43;9.80;;;31.80;45.50;;;;;;4385674;32;20081;-37
2021/06/28 00:18:52;;;;;;;15.10;8.77;;;31.90;45.30;;;;;;4385638;32;20114;-37
2021/06/28 00:21:19;;;;;;;11.02;8.90;;;31.90;45.30;;;;;;4385931;32;20563;-38
2021/06/28 00:23:46;;;;;;;10.82;8.98;;;31.80;45.20;;;;;;4386191;32;20185;-38
2021/06/28 00:26:13;;;;;;;13.82;9.25;;;31.80;45.30;;;;;;4385887;32;20065;-38
2021/06/28 00:28:39;;;;;;;11.55;9.10;;;31.70;45.50;;;;;;4370914;32;20134;-38
2021/06/28 00:31:06;;;;;;;13.95;9.00;;;31.60;45.60;;;;;;4372976;32;20565;-38
2021/06/28 00:33:32;;;;;;;10.23;9.10;;;31.50;45.70;;;;;;4371569;32;20507;-37
2021/06/28 00:35:58;;;;;;;16.12;8.88;;;31.50;45.90;;;;;;4373331;32;20089;-38
2021/06/28 00:38:25;;;;;;;12.73;9.20;;;31.40;46.00;;;;;;4371193;32;20186;-38
2021/06/28 00:40:51;;;;;;;14.07;9.07;;;31.40;46.00;;;;;;4373200;32;20149;-38
2021/06/28 00:43:18;;;;;;;12.18;9.45;;;31.50;46.00;;;;;;4371592;32;20062;-38
2021/06/28 00:45:44;;;;;;;17.15;8.70;;;31.60;45.90;;;;;;4372975;32;20092;-38
2021/06/28 00:48:13;;;;;;;10.68;9.35;;;31.80;45.70;;;;;;4380637;32;20076;-39
2021/06/28 00:50:49;;;;;;;15.25;9.05;;;31.90;45.60;;;;;;4386590;32;20076;-37
2021/06/28 00:53:17;;;;;;;15.90;9.95;;;32.00;45.30;;;;;;4388451;32;20053;-38
2021/06/28 00:55:46;;;;;;;11.18;9.20;;;32.10;45.10;;;;;;4386317;32;20144;-37
2021/06/28 00:58:13;;;;;;;11.00;9.25;;;32.20;45.00;;;;;;4386518;32;20061;-39
2021/06/28 01:00:40;;;;;;;19.17;9.43;;;32.30;45.00;;;;;;4387941;32;20138;-37
2021/06/28 01:03:06;;;;;;;22.83;9.60;;;32.40;44.80;;;;;;4386635;32;20069;-37
2021/06/28 01:05:35;;;;;;;16.90;9.65;;;32.40;44.60;;;;;;4386569;32;20096;-37
2021/06/28 01:08:03;;;;;;;15.80;10.10;;;32.50;44.70;;;;;;4388318;32;20058;-38
2021/06/28 01:10:29;;;;;;;14.82;9.75;;;32.50;44.80;;;;;;4397927;32;20093;-38
2021/06/28 01:12:56;;;;;;;14.25;10.13;;;32.60;45.20;;;;;;4389383;32;20083;-37
2021/06/28 01:15:23;;;;;;;17.00;10.43;;;32.60;45.20;;;;;;4403012;32;20072;-37
2021/06/28 01:17:49;;;;;;;15.32;9.75;;;32.70;45.00;;;;;;4403274;32;20076;-37
2021/06/28 01:20:26;;;;;;;14.60;9.55;;;32.80;44.70;;;;;;4403009;32;20144;-38
2021/06/28 01:23:08;;;;;;;57.35;21.37;;;32.80;44.60;;;;;;4403116;32;20554;-37
2021/06/28 01:25:34;;;;;;;23.50;12.55;;;32.80;44.40;;;;;;4389066;32;20112;-38
2021/06/28 01:28:01;;;;;;;30.80;15.25;;;33.00;44.20;;;;;;4392005;32;20542;-38
2021/06/28 01:30:29;;;;;;;20.48;10.38;;;33.00;43.90;;;;;;4392084;32;20534;-38
2021/06/28 01:32:56;;;;;;;14.57;10.25;;;33.10;43.60;;;;;;4379786;32;20154;-37
2021/06/28 01:35:23;;;;;;;17.23;11.05;;;33.20;43.30;;;;;;4406069;32;20053;-37
2021/06/28 01:37:49;;;;;;;19.83;11.12;;;33.20;43.30;;;;;;4405943;32;20097;-38
2021/06/28 01:40:17;;;;;;;21.40;11.63;;;33.00;43.60;;;;;;4406165;32;20539;-38
2021/06/28 01:42:44;;;;;;;16.08;10.10;;;32.90;43.90;;;;;;4391705;32;20069;-38
2021/06/28 01:45:22;;;;;;;23.00;11.48;;;32.70;44.00;;;;;;4391700;32;20069;-38
2021/06/28 01:47:50;;;;;;;21.70;11.35;;;32.60;44.40;;;;;;4387792;32;20108;-37
2021/06/28 01:50:18;;;;;;;16.33;10.35;;;32.70;44.70;;;;;;4376288;32;20132;-37
2021/06/28 01:52:45;;;;;;;24.08;10.80;;;33.00;44.50;;;;;;4390879;32;20065;-37
2021/06/28 01:55:14;;;;;;;19.83;11.23;;;33.20;44.30;;;;;;4376529;32;20069;-38
2021/06/28 01:57:42;;;;;;;18.80;10.02;;;33.40;44.00;;;;;;4390045;32;20493;-37
2021/06/28 02:00:13;;;;;;;19.62;10.50;;;33.60;44.00;;;;;;4390506;32;20088;-37
2021/06/28 02:02:40;;;;;;;13.80;9.68;;;33.80;44.10;;;;;;4376895;32;20069;-37
2021/06/28 02:05:07;;;;;;;18.65;12.82;;;34.10;44.10;;;;;;4330872;33;20086;-38
2021/06/28 02:07:33;;;;;;;14.02;10.18;;;34.30;43.80;;;;;;4331249;33;20070;-38
2021/06/28 02:10:00;;;;;;;15.65;10.68;;;34.40;43.50;;;;;;4331263;33;20725;-39
2021/06/28 02:12:27;;;;;;;15.45;9.68;;;34.50;43.40;;;;;;4331238;33;20063;-38
2021/06/28 02:14:54;;;;;;;14.13;9.52;;;34.80;43.30;;;;;;4343501;33;20082;-38
2021/06/28 02:17:20;;;;;;;12.98;10.25;;;35.20;43.40;;;;;;4342760;33;20067;-38
2021/06/28 02:19:47;;;;;;;15.45;10.30;;;35.60;42.20;;;;;;4329936;33;20070;-38
2021/06/28 02:22:14;;;;;;;18.23;10.48;;;36.00;41.50;;;;;;4342853;33;20083;-38
2021/06/28 02:24:41;;;;;;;17.12;9.38;;;36.10;41.10;;;;;;4330561;33;20081;-38
2021/06/28 02:27:07;;;;;;;15.90;8.73;;;36.30;41.40;;;;;;4300988;33;20071;-38
2021/06/28 02:29:34;;;;;;;18.65;9.23;;;36.50;41.00;;;;;;4313384;33;20457;-38
2021/06/28 02:32:01;;;;;;;17.50;9.35;;;36.90;40.70;;;;;;4313345;33;20063;-38
2021/06/28 02:34:28;;;;;;;13.90;8.77;;;37.20;40.30;;;;;;4313346;33;20520;-38
2021/06/28 02:36:55;;;;;;;13.05;8.82;;;37.50;40.00;;;;;;4339978;32;20541;-38
2021/06/28 02:39:21;;;;;;;11.65;9.27;;;37.70;39.50;;;;;;4344699;32;20071;-38
2021/06/28 02:41:48;;;;;;;15.90;10.60;;;38.20;39.10;;;;;;4345264;32;20676;-38
2021/06/28 02:44:14;;;;;;;13.50;9.13;;;38.50;38.50;;;;;;4357422;32;20113;-38
2021/06/28 02:46:40;;;;;;;14.25;7.72;;;38.80;38.00;;;;;;4357280;32;20062;-38
2021/06/28 02:49:07;;;;;;;12.63;8.00;;;39.10;37.70;;;;;;4370650;32;20073;-38
2021/06/28 02:51:33;;;;;;;9.20;7.97;;;39.30;37.20;;;;;;4372023;32;20055;-38
2021/06/28 02:54:00;;;;;;;12.25;8.57;;;39.40;36.80;;;;;;4341816;33;20570;-38
2021/06/28 02:56:26;;;;;;;16.12;8.38;;;39.50;36.60;;;;;;4329976;33;20156;-38
2021/06/28 02:58:56;;;;;;;11.07;8.18;;;39.60;36.60;;;;;;4341838;33;20070;-38
2021/06/28 03:01:26;;;;;;;17.40;9.30;;;39.60;36.50;;;;;;4329963;33;20624;-39
2021/06/28 03:03:52;;;;;;;13.62;8.48;;;39.40;36.30;;;;;;4324232;32;20142;-38
2021/06/28 03:06:19;;;;;;;13.07;8.07;;;39.10;36.70;;;;;;4372231;32;20109;-38
2021/06/28 03:08:46;;;;;;;23.05;8.38;;;39.00;36.90;;;;;;4359536;32;20080;-39
2021/06/28 03:11:17;;;;;;;11.60;8.75;;;39.20;36.60;;;;;;4347117;32;20514;-39
2021/06/28 03:13:44;;;;;;;22.35;7.80;;;39.40;36.20;;;;;;4359903;32;20058;-38
2021/06/28 03:16:10;;;;;;;11.73;7.12;;;39.70;35.70;;;;;;4359584;32;20058;-38
2021/06/28 03:18:37;;;;;;;12.93;8.10;;;40.00;34.80;;;;;;4359390;32;20074;-38
2021/06/28 03:21:07;;;;;;;9.48;7.10;;;40.40;34.40;;;;;;4371438;32;20202;-39
2021/06/28 03:23:34;;;;;;;9.98;6.82;;;40.70;34.00;;;;;;4371792;32;20053;-39
2021/06/28 03:26:01;;;;;;;8.10;6.57;;;41.00;32.70;;;;;;4371725;32;20062;-38
2021/06/28 03:28:27;;;;;;;14.00;8.60;;;41.20;32.80;;;;;;4359081;32;20076;-38
2021/06/28 03:30:53;;;;;;;13.48;7.60;;;41.20;32.30;;;;;;4364198;32;20094;-39
2021/06/28 03:33:20;;;;;;;10.85;6.90;;;41.10;32.20;;;;;;4374006;32;20082;-38
2021/06/28 03:35:46;;;;;;;9.85;5.65;;;40.90;32.30;;;;;;4386648;32;20087;-39
2021/06/28 03:38:13;;;;;;;9.13;6.32;;;40.50;31.90;;;;;;4356008;32;20592;-39
2021/06/28 03:40:39;;;;;;;16.48;8.57;;;40.20;32.50;;;;;;4356599;32;20082;-40
2021/06/28 03:43:07;;;;;;;12.37;6.18;;;40.00;32.50;;;;;;4356307;32;20135;-38
2021/06/28 03:45:35;;;;;;;11.00;6.10;;;40.00;32.60;;;;;;4355898;32;20157;-38
2021/06/28 03:48:02;;;;;;;14.18;5.85;;;39.90;32.50;;;;;;4356320;32;20126;-38
2021/06/28 03:50:28;;;;;;;6.25;5.40;;;40.00;32.60;;;;;;4355330;32;20067;-38
2021/06/28 03:52:55;;;;;;;8.93;5.85;;;40.10;32.40;;;;;;4356033;32;20580;-40
2021/06/28 03:55:21;;;;;;;7.97;4.60;;;40.30;32.70;;;;;;4356123;32;20068;-37
2021/06/28 03:57:48;;;;;;;11.90;5.87;;;40.60;31.60;;;;;;4356278;32;20144;-38
2021/06/28 04:00:20;;;;;;;7.45;4.75;;;41.00;31.60;;;;;;4355981;32;20332;-39
2021/06/28 04:02:46;;;;;;;6.82;4.85;;;41.40;30.00;;;;;;4369203;32;20073;-37
2021/06/28 04:05:23;;;;;;;6.57;4.55;;;41.90;30.00;;;;;;4371473;32;20078;-39
2021/06/28 04:07:50;;;;;;;9.00;5.00;;;42.30;29.90;;;;;;4347742;32;20078;-38
2021/06/28 04:10:22;;;;;;;11.50;5.28;;;42.70;29.70;;;;;;4387091;32;20563;-38
2021/06/28 04:12:50;;;;;;;7.80;5.30;;;42.80;29.90;;;;;;4388163;32;20478;-38
2021/06/28 04:15:17;;;;;;;10.68;5.35;;;43.00;29.30;;;;;;4386845;32;20062;-38
2021/06/28 04:17:46;;;;;;;7.78;4.90;;;43.10;29.50;;;;;;4388802;32;20149;-39
2021/06/28 04:20:14;;;;;;;7.35;4.53;;;43.30;29.30;;;;;;4388420;32;20058;-38
2021/06/28 04:22:41;;;;;;;8.13;4.18;;;43.50;29.60;;;;;;4388565;32;20514;-38
2021/06/28 04:25:10;;;;;;;5.12;4.32;;;43.70;29.50;;;;;;4386745;32;20465;-38
2021/06/28 04:27:36;;;;;;;7.82;4.85;;;43.90;28.70;;;;;;4388256;32;20053;-38
2021/06/28 04:30:07;;;;;;;6.90;4.75;;;44.00;28.50;;;;;;4388406;32;20078;-38
2021/06/28 04:32:37;;;;;;;6.32;4.05;;;44.10;28.40;;;;;;4388170;32;20557;-38
2021/06/28 04:35:09;;;;;;;7.62;4.03;;;44.40;28.00;;;;;;4387896;32;20469;-37
2021/06/28 04:37:36;;;;;;;6.37;4.40;;;44.70;27.50;;;;;;4387051;32;20492;-37
2021/06/28 04:40:04;;;;;;;8.13;4.68;;;45.10;27.10;;;;;;4387777;32;20065;-37
2021/06/28 04:42:31;;;;;;;5.60;3.78;;;45.40;26.80;;;;;;4388079;32;20109;-38
2021/06/28 04:44:57;;;;;;;6.00;4.03;;;45.70;26.60;;;;;;4386732;32;20061;-38
2021/06/28 04:47:24;;;;;;;9.13;3.72;;;46.00;26.40;;;;;;4387256;32;20073;-39
2021/06/28 04:49:50;;;;;;;8.23;3.30;;;46.20;26.10;;;;;;4386601;32;20077;-40
2021/06/28 04:52:17;;;;;;;9.50;4.37;;;46.30;25.80;;;;;;4387512;32;20065;-37
2021/06/28 04:54:43;;;;;;;5.05;3.60;;;46.30;25.90;;;;;;4388304;32;20058;-38
2021/06/28 04:57:13;;;;;;;7.55;3.53;;;46.00;25.60;;;;;;4386406;32;20215;-39
2021/06/28 04:59:39;;;;;;;8.20;3.85;;;45.50;26.00;;;;;;4387500;32;20097;-39
2021/06/28 05:02:06;;;;;;;3.97;3.08;;;45.10;26.10;;;;;;4387289;32;20081;-38
2021/06/28 05:04:32;;;;;;;6.28;4.03;;;44.90;25.90;;;;;;4386230;32;20118;-39
2021/06/28 05:06:58;;;;;;;8.23;3.47;;;44.50;25.90;;;;;;4388165;32;20057;-38
2021/06/28 05:09:25;;;;;;;9.73;3.55;;;44.30;26.10;;;;;;4386175;32;20100;-38
2021/06/28 05:11:51;;;;;;;5.65;3.00;;;44.30;26.30;;;;;;4387950;32;20061;-39
2021/06/28 05:14:19;;;;;;;5.90;3.03;;;44.50;26.20;;;;;;4387901;32;20107;-38
2021/06/28 05:16:45;;;;;;;4.28;3.25;;;44.90;26.10;;;;;;4388021;32;20046;-38
2021/06/28 05:19:12;;;;;;;6.10;2.78;;;45.20;25.70;;;;;;4387605;32;20061;-38
2021/06/28 05:21:38;;;;;;;9.35;3.10;;;45.60;25.90;;;;;;4388105;32;20147;-38
2021/06/28 05:24:05;;;;;;;7.43;3.50;;;46.00;25.80;;;;;;4386300;32;20162;-39
2021/06/28 05:26:31;;;;;;;8.80;3.65;;;46.30;25.60;;;;;;4387444;32;20058;-39
2021/06/28 05:28:58;;;;;;;7.25;4.40;;;46.60;25.60;;;;;;4387573;32;20104;-39
2021/06/28 05:31:26;;;;;;;7.43;4.00;;;46.80;25.50;;;;;;4387740;32;20178;-39
2021/06/28 05:33:53;;;;;;;7.10;3.22;;;47.00;25.50;;;;;;4388073;32;20077;-39
2021/06/28 05:36:22;;;;;;;9.05;3.53;;;47.00;25.30;;;;;;4387357;32;20069;-39
2021/06/28 05:38:48;;;;;;;11.50;3.22;;;47.00;25.10;;;;;;4386208;32;20064;-39
2021/06/28 05:41:18;;;;;;;10.25;3.55;;;46.90;25.00;;;;;;4387686;32;20065;-39
2021/06/28 05:43:45;;;;;;;7.18;3.03;;;46.80;24.90;;;;;;4387546;32;20054;-38
2021/06/28 05:46:11;;;;;;;9.48;3.08;;;46.60;24.80;;;;;;4387636;32;20070;-39
2021/06/28 05:48:38;;;;;;;5.62;3.00;;;46.50;24.90;;;;;;4385927;32;20193;-39
2021/06/28 05:51:05;;;;;;;11.48;3.55;;;46.50;24.80;;;;;;4387648;32;20741;-38
2021/06/28 05:53:33;;;;;;;10.07;4.00;;;46.50;24.80;;;;;;4387600;32;20070;-38
2021/06/28 05:56:00;;;;;;;5.43;3.00;;;46.60;24.60;;;;;;4354671;32;20077;-39
2021/06/28 05:58:28;;;;;;;13.27;3.30;;;46.60;24.60;;;;;;4354866;32;20078;-38
2021/06/28 06:00:56;;;;;;;8.25;3.10;;;46.80;24.50;;;;;;4355142;32;20523;-39
2021/06/28 06:03:23;;;;;;;8.85;3.30;;;46.80;24.30;;;;;;4354751;32;20074;-37
2021/06/28 06:05:49;;;;;;;7.18;2.92;;;46.80;24.10;;;;;;4354962;32;20098;-39
2021/06/28 06:08:16;;;;;;;10.00;3.03;;;46.80;24.50;;;;;;4354861;32;20062;-39
2021/06/28 06:10:42;;;;;;;8.30;3.37;;;46.80;24.30;;;;;;4354889;32;20067;-38
2021/06/28 06:13:09;;;;;;;8.02;3.03;;;46.80;24.40;;;;;;4355942;32;20070;-38
2021/06/28 06:15:35;;;;;;;15.90;3.33;;;46.80;24.40;;;;;;4357516;32;20267;-38
2021/06/28 06:18:02;;;;;;;8.52;3.17;;;46.80;24.60;;;;;;4357159;32;20097;-38
2021/06/28 06:20:29;;;;;;;8.13;2.62;;;46.70;24.50;;;;;;4356989;32;20074;-39
2021/06/28 06:22:55;;;;;;;5.15;2.72;;;46.70;24.20;;;;;;4342644;33;20094;-39
2021/06/28 06:25:22;;;;;;;10.43;3.00;;;46.80;24.00;;;;;;4342395;33;20177;-37
2021/06/28 06:27:48;;;;;;;13.15;3.95;;;46.90;23.90;;;;;;4367404;32;20062;-38
2021/06/28 06:30:15;;;;;;;7.30;3.37;;;47.00;23.30;;;;;;4372353;32;20550;-38
2021/06/28 06:32:42;;;;;;;9.73;3.37;;;47.20;23.20;;;;;;4372432;32;20086;-39
2021/06/28 06:35:09;;;;;;;13.00;3.30;;;47.40;23.00;;;;;;4372583;32;20051;-39
2021/06/28 06:37:35;;;;;;;4.10;2.90;;;47.60;23.00;;;;;;4359809;32;20080;-39
2021/06/28 06:40:03;;;;;;;7.45;3.67;;;47.70;23.00;;;;;;4372198;32;20496;-38
2021/06/28 06:42:30;;;;;;;4.28;3.35;;;47.60;22.90;;;;;;4360102;32;20490;-39
2021/06/28 06:44:56;;;;;;;8.52;2.40;;;47.60;23.10;;;;;;4372090;32;20524;-38
2021/06/28 06:47:23;;;;;;;6.35;3.17;;;47.70;23.20;;;;;;4372067;32;20084;-39
2021/06/28 06:49:49;;;;;;;10.65;3.87;;;47.80;23.30;;;;;;4372012;32;20617;-38
2021/06/28 06:52:17;;;;;;;4.93;3.53;;;47.80;23.10;;;;;;4359354;32;20073;-39
2021/06/28 06:54:44;;;;;;;9.07;3.22;;;48.00;23.10;;;;;;4371925;32;20090;-38
2021/06/28 06:57:11;;;;;;;8.65;3.65;;;48.30;22.90;;;;;;4372109;32;20081;-38
2021/06/28 06:59:38;;;;;;;11.02;3.83;;;48.40;22.70;;;;;;4378034;32;20204;-39
2021/06/28 07:02:05;;;;;;;9.02;2.80;;;48.50;22.40;;;;;;4404852;32;20069;-38
2021/06/28 07:04:32;;;;;;;3.53;2.42;;;48.40;22.60;;;;;;4404311;32;20096;-39
2021/06/28 07:07:00;;;;;;;6.90;3.12;;;48.30;22.60;;;;;;4390584;32;20142;-38
2021/06/28 07:09:28;;;;;;;6.87;2.87;;;48.20;22.70;;;;;;4404237;32;20532;-42
2021/06/28 07:11:55;;;;;;;5.30;3.42;;;48.00;22.90;;;;;;4404875;32;20165;-39
2021/06/28 07:14:22;;;;;;;6.60;3.65;;;47.90;23.30;;;;;;4404885;32;20057;-39
2021/06/28 07:16:48;;;;;;;8.05;3.35;;;47.80;23.50;;;;;;4404558;32;20069;-39
2021/06/28 07:19:15;;;;;;;9.15;3.75;;;47.60;23.60;;;;;;4404376;32;20095;-38
2021/06/28 07:21:41;;;;;;;10.80;4.37;;;47.50;23.80;;;;;;4404284;32;20054;-38
2021/06/28 07:24:09;;;;;;;4.18;3.65;;;47.50;23.90;;;;;;4403975;32;20084;-39
2021/06/28 07:26:36;;;;;;;9.05;3.08;;;47.50;23.90;;;;;;4403847;32;20053;-38
2021/06/28 07:29:02;;;;;;;6.32;2.60;;;47.50;23.80;;;;;;4404389;32;20542;-39
2021/06/28 07:31:29;;;;;;;8.75;3.75;;;47.70;23.80;;;;;;4404030;32;20100;-39
2021/06/28 07:33:56;;;;;;;10.65;3.50;;;47.80;23.90;;;;;;4404138;32;20065;-38
2021/06/28 07:36:22;;;;;;;5.40;3.70;;;47.70;24.00;;;;;;4389943;32;20513;-39
2021/06/28 07:38:48;;;;;;;7.65;4.00;;;47.50;23.90;;;;;;4403715;32;20126;-39
2021/06/28 07:41:15;;;;;;;9.10;3.55;;;47.20;24.20;;;;;;4404244;32;20691;-38
2021/06/28 07:43:41;;;;;;;9.45;2.87;;;47.00;24.30;;;;;;4403683;32;20069;-39
2021/06/28 07:46:08;;;;;;;4.90;3.50;;;46.90;24.10;;;;;;4403941;32;20088;-39
2021/06/28 07:48:34;;;;;;;5.85;3.80;;;46.90;24.20;;;;;;4393602;32;20077;-38
2021/06/28 07:51:01;;;;;;;3.80;3.40;;;47.00;24.00;;;;;;4388984;32;20090;-39
2021/06/28 07:53:28;;;;;;;9.98;4.15;;;47.20;23.70;;;;;;4388736;32;20088;-39
2021/06/28 07:55:54;;;;;;;6.78;3.35;;;47.60;23.60;;;;;;4374566;32;20115;-39
2021/06/28 07:58:21;;;;;;;5.28;3.67;;;47.70;23.70;;;;;;4388671;32;20066;-39
2021/06/28 08:00:47;;;;;;;4.47;3.10;;;47.80;23.80;;;;;;4355762;32;20110;-39
2021/06/28 08:03:14;;;;;;;8.85;4.25;;;47.60;23.60;;;;;;4343906;32;20081;-39
2021/06/28 08:05:41;;;;;;;4.35;3.20;;;47.40;24.00;;;;;;4356233;32;20074;-39
2021/06/28 08:08:08;;;;;;;5.25;3.75;;;47.10;23.80;;;;;;4356279;32;20503;-39
2021/06/28 08:10:34;;;;;;;5.22;3.50;;;46.90;23.50;;;;;;4355443;32;20503;-39
2021/06/28 08:13:01;;;;;;;6.97;3.83;;;46.70;23.80;;;;;;4355463;32;20266;-38
2021/06/28 08:15:27;;;;;;;3.70;3.40;;;46.60;23.50;;;;;;4343967;32;20145;-39
2021/06/28 08:17:54;;;;;;;4.28;3.45;;;46.60;23.70;;;;;;4340915;33;20075;-40
2021/06/28 08:20:21;;;;;;;5.32;3.30;;;46.50;23.60;;;;;;4341073;33;20075;-38
2021/06/28 08:22:48;;;;;;;4.80;3.85;;;46.40;24.20;;;;;;4340832;33;20074;-39
2021/06/28 08:25:16;;;;;;;5.93;3.67;;;46.20;25.20;;;;;;4328575;33;20082;-39
2021/06/28 08:27:43;;;;;;;6.43;3.53;;;45.80;25.60;;;;;;4340849;33;20067;-40
2021/06/28 08:30:10;;;;;;;11.38;4.80;;;45.30;25.80;;;;;;4340935;33;20157;-40
2021/06/28 08:32:37;;;;;;;5.97;3.62;;;44.90;27.10;;;;;;4367002;32;20175;-39
2021/06/28 08:35:04;;;;;;;6.97;3.85;;;44.40;27.20;;;;;;4370972;32;20070;-39
2021/06/28 08:37:31;;;;;;;9.68;3.70;;;43.90;27.00;;;;;;4371231;32;20493;-38
2021/06/28 08:39:57;;;;;;;6.55;3.97;;;43.50;27.40;;;;;;4371131;32;20082;-40
2021/06/28 08:42:24;;;;;;;8.88;3.58;;;43.00;27.00;;;;;;4370957;32;20168;-40
2021/06/28 08:44:50;;;;;;;5.12;3.87;;;42.70;27.10;;;;;;4359304;32;20137;-39
2021/06/28 08:47:18;;;;;;;12.13;4.30;;;42.50;26.80;;;;;;4358750;32;20098;-39
2021/06/28 08:49:44;;;;;;;4.87;4.12;;;42.40;27.10;;;;;;4398319;32;20145;-39
2021/06/28 08:52:11;;;;;;;11.40;4.80;;;42.40;26.60;;;;;;4389166;32;20549;-39
2021/06/28 08:54:37;;;;;;;5.62;3.42;;;42.50;25.60;;;;;;4403780;32;20076;-39
2021/06/28 08:57:04;;;;;;;8.65;3.87;;;42.50;25.60;;;;;;4403756;32;20072;-40
2021/06/28 08:59:31;;;;;;;5.32;3.70;;;42.50;25.80;;;;;;4402737;32;20100;-39
2021/06/28 09:01:57;;;;;;;11.35;5.18;;;42.60;26.70;;;;;;4403127;32;20056;-38
2021/06/28 09:04:24;;;;;;;10.90;4.80;;;42.50;29.90;;;;;;4402882;32;20076;-39
2021/06/28 09:06:50;;;;;;;10.18;4.95;;;42.30;30.80;;;;;;4402432;32;20053;-39
2021/06/28 09:09:18;;;;;;;11.05;5.72;;;42.10;30.70;;;;;;4402334;32;20138;-39
2021/06/28 09:11:49;;;;;;;10.25;6.18;;;41.80;31.00;;;;;;4403465;32;20540;-38
2021/06/28 09:14:17;;;;;;;5.00;4.60;;;41.50;31.80;;;;;;4389242;32;20144;-38
2021/06/28 09:16:45;;;;;;;8.45;5.57;;;41.30;31.50;;;;;;4388435;32;20099;-38
2021/06/28 09:19:19;;;;;;;11.35;4.70;;;41.30;32.50;;;;;;4402689;32;20054;-36
2021/06/28 09:21:52;;;;;;;13.15;4.87;;;41.60;32.10;;;;;;4403169;32;20061;-38
2021/06/28 09:24:37;;;;;;;7.95;4.68;;;41.80;31.80;;;;;;4402843;32;20073;-38
2021/06/28 09:27:10;;;;;;;5.28;4.25;;;42.10;31.10;;;;;;4402841;32;20536;-37
2021/06/28 09:29:43;;;;;;;5.13;4.47;;;42.40;30.00;;;;;;4403188;32;20063;-38
2021/06/28 09:32:11;;;;;;;11.77;3.55;;;42.60;29.30;;;;;;4403310;32;20058;-39
2021/06/28 09:34:38;;;;;;;9.60;3.95;;;42.80;28.50;;;;;;4402839;32;20057;-38
2021/06/28 09:37:05;;;;;;;10.80;4.12;;;43.00;28.00;;;;;;4402437;32;20085;-38
2021/06/28 09:39:37;;;;;;;4.05;3.62;;;43.20;27.30;;;;;;4402615;32;20559;-39
2021/06/28 09:42:21;;;;;;;5.70;3.87;;;43.20;27.20;;;;;;4388950;32;20128;-38
2021/06/28 09:44:55;;;;;;;6.03;3.97;;;43.00;27.70;;;;;;4402888;32;20057;-38
2021/06/28 09:47:25;;;;;;;9.02;4.70;;;43.00;27.40;;;;;;4401078;32;20518;-38
2021/06/28 09:50:09;;;;;;;9.73;3.80;;;43.00;27.10;;;;;;4390270;32;20170;-38
2021/06/28 09:52:43;;;;;;;5.93;3.85;;;43.10;26.90;;;;;;4390302;32;20143;-39
2021/06/28 09:55:27;;;;;;;5.40;3.47;;;43.10;26.30;;;;;;4390589;32;20061;-38
2021/06/28 09:58:23;;;;;;;;;;;43.10;26.90;;;;;;4390819;32;20057;-39
2021/06/28 10:00:57;;;;;;;6.10;4.12;;;43.20;27.00;;;;;;4390235;32;19977;-39
2021/06/28 10:03:39;;;;;;;8.43;3.22;;;43.00;27.00;;;;;;4390323;32;20107;-38
2021/06/28 10:06:13;;;;;;;5.82;4.00;;;43.00;27.40;;;;;;4388706;32;20061;-37
2021/06/28 10:08:46;;;;;;;9.95;3.83;;;43.40;27.30;;;;;;4390378;32;20170;-38
2021/06/28 10:11:19;;;;;;;4.80;4.03;;;43.90;27.10;;;;;;4390099;32;20555;-39
2021/06/28 10:13:57;;;;;;;9.65;4.47;;;44.20;27.00;;;;;;4390138;32;20173;-39
2021/06/28 10:16:25;;;;;;;6.50;3.90;;;44.20;27.10;;;;;;4390152;32;20072;-39
2021/06/28 10:18:53;;;;;;;6.70;3.90;;;44.30;27.10;;;;;;4389882;32;20081;-39
2021/06/28 10:21:20;;;;;;;6.78;3.62;;;44.40;27.00;;;;;;4389975;32;20158;-39
2021/06/28 10:23:47;;;;;;;10.25;4.55;;;44.70;26.90;;;;;;4388758;32;20088;-40
2021/06/28 10:26:13;;;;;;;8.63;3.37;;;44.90;26.80;;;;;;4388290;32;20476;-38
2021/06/28 10:28:40;;;;;;;7.62;3.60;;;45.10;26.60;;;;;;4388526;32;20100;-39
2021/06/28 10:31:08;;;;;;;9.88;4.65;;;45.20;26.60;;;;;;4389810;32;20073;-38
2021/06/28 10:33:37;;;;;;;8.75;5.22;;;45.20;26.30;;;;;;4390417;32;20545;-39
2021/06/28 10:36:14;;;;;;;6.65;3.83;;;45.40;26.50;;;;;;4390326;32;20104;-38
2021/06/28 10:38:47;;;;;;;12.05;4.15;;;45.50;26.20;;;;;;4388468;32;20073;-39
2021/06/28 10:41:33;;;;;;;9.50;3.78;;;45.60;26.10;;;;;;4389322;32;20062;-38
2021/06/28 10:43:59;;;;;;;13.15;3.95;;;45.70;26.00;;;;;;4388391;32;20057;-39
2021/06/28 10:46:37;;;;;;;10.73;4.32;;;45.80;25.90;;;;;;4389643;32;20068;-39
2021/06/28 10:49:04;;;;;;;7.82;4.45;;;45.80;26.10;;;;;;4391445;32;20062;-38
2021/06/28 10:51:51;;;;;;;6.07;3.67;;;45.60;26.40;;;;;;4404462;32;20602;-39
2021/06/28 10:54:38;;;;;;;7.65;5.22;;;45.50;26.40;;;;;;4356948;32;20058;-39
2021/06/28 10:57:05;;;;;;;6.00;3.55;;;45.40;26.40;;;;;;4356764;32;20138;-38
2021/06/28 10:59:44;;;;;;;4.50;3.70;;;45.30;26.50;;;;;;4331845;32;20157;-39
2021/06/28 11:02:12;;;;;;;7.80;4.07;;;45.30;26.50;;;;;;4344536;32;20605;-39
2021/06/28 11:04:53;;;;;;;4.95;3.47;;;45.40;26.50;;;;;;4357035;32;20098;-39
2021/06/28 11:07:20;;;;;;;5.50;3.30;;;45.50;26.00;;;;;;4356571;32;20102;-40
2021/06/28 11:09:51;;;;;;;4.22;3.50;;;45.70;25.50;;;;;;4343941;32;20545;-38
2021/06/28 11:12:30;;;;;;;4.05;3.65;;;45.80;25.70;;;;;;4356764;32;20089;-39
2021/06/28 11:15:24;;;;;;;7.03;3.67;;;45.80;25.50;;;;;;4356196;32;20150;-39
2021/06/28 11:17:55;;;;;;;5.45;3.42;;;45.80;25.80;;;;;;4356170;32;20054;-40
2021/06/28 11:20:32;;;;;;;10.55;3.50;;;45.70;25.50;;;;;;4356517;32;20236;-39
2021/06/28 11:23:16;;;;;;;9.75;2.97;;;45.70;25.10;;;;;;4356892;32;20444;-38
2021/06/28 11:25:55;;;;;;;5.87;3.03;;;45.50;24.40;;;;;;4356662;32;20080;-38
2021/06/28 11:28:34;;;;;;;6.05;3.58;;;45.30;23.90;;;;;;4356818;32;20094;-39
2021/06/28 11:31:24;;;;;;;5.62;3.80;;;44.90;24.60;;;;;;4353213;32;20069;-38
2021/06/28 11:33:53;;;;;;;6.00;3.08;;;44.70;24.90;;;;;;4389817;32;20099;-38
2021/06/28 11:36:40;;;;;;;4.55;3.12;;;44.80;24.90;;;;;;4403716;32;20171;-38
2021/06/28 11:39:27;;;;;;;8.32;3.00;;;44.90;24.60;;;;;;4404139;32;20077;-38
2021/06/28 11:42:33;;;;;;;5.70;3.72;;;45.00;24.50;;;;;;4403748;32;20521;-38
2021/06/28 11:45:11;;;;;;;3.80;3.25;;;45.10;24.60;;;;;;4340871;33;20090;-38
2021/06/28 11:47:49;;;;;;;5.78;2.15;;;45.40;24.60;;;;;;4329488;33;20074;-39
2021/06/28 11:50:24;;;;;;;3.75;3.00;;;45.50;24.50;;;;;;4341406;33;20066;-39
2021/06/28 11:53:11;;;;;;;9.23;3.75;;;45.70;24.50;;;;;;4341210;33;20089;-38
2021/06/28 11:55:46;;;;;;;8.00;4.10;;;45.70;24.30;;;;;;4329049;33;20575;-38
2021/06/28 11:58:12;;;;;;;6.47;2.78;;;45.90;24.40;;;;;;4328934;33;20276;-39
2021/06/28 12:00:39;;;;;;;5.53;3.15;;;46.30;23.80;;;;;;4329052;33;20094;-40
2021/06/28 12:03:28;;;;;;;4.85;2.90;;;46.70;24.00;;;;;;4311252;33;20083;-40
2021/06/28 12:05:55;;;;;;;8.65;3.22;;;47.10;24.00;;;;;;4299898;33;20469;-37
2021/06/28 12:08:25;;;;;;;6.68;4.75;;;47.30;23.90;;;;;;4287230;33;20063;-40
2021/06/28 12:10:59;;;;;;;3.12;2.80;;;47.40;24.10;;;;;;4310378;33;20087;-39
2021/06/28 12:13:37;;;;;;;4.43;3.15;;;47.50;23.80;;;;;;4311189;33;20087;-39
2021/06/28 12:16:13;;;;;;;4.75;2.95;;;47.60;23.80;;;;;;4311670;33;20078;-39
2021/06/28 12:18:40;;;;;;;5.85;3.40;;;47.70;23.70;;;;;;4311703;33;20749;-38
2021/06/28 12:21:06;;;;;;;4.35;3.33;;;47.70;23.50;;;;;;4344123;32;20081;-39
2021/06/28 12:23:33;;;;;;;4.50;2.90;;;47.80;23.70;;;;;;4370850;32;20062;-39
2021/06/28 12:26:13;;;;;;;3.55;2.97;;;47.90;23.50;;;;;;4370555;32;20075;-39
2021/06/28 12:28:40;;;;;;;8.05;2.72;;;48.20;23.30;;;;;;4371162;32;20062;-40
2021/06/28 12:31:16;;;;;;;3.90;2.62;;;48.40;22.70;;;;;;4370328;32;20069;-39
2021/06/28 12:33:43;;;;;;;5.47;2.30;;;48.40;22.70;;;;;;4381527;32;20069;-38
2021/06/28 12:36:09;;;;;;;6.03;2.10;;;48.30;22.50;;;;;;4403213;32;20540;-38
2021/06/28 12:38:36;;;;;;;5.47;1.77;;;48.10;22.20;;;;;;4402723;32;20145;-38
2021/06/28 12:41:04;;;;;;;6.82;2.47;;;48.10;22.30;;;;;;4403133;32;20552;-39
2021/06/28 12:43:30;;;;;;;3.28;1.55;;;47.90;22.30;;;;;;4355470;32;20179;-38
2021/06/28 12:45:59;;;;;;;2.30;2.12;;;47.80;22.20;;;;;;4330610;32;20647;-38
2021/06/28 12:48:27;;;;;;;7.47;2.80;;;47.80;22.50;;;;;;4334147;33;20077;-38
2021/06/28 12:51:02;;;;;;;2.85;2.37;;;47.90;22.60;;;;;;4328147;33;20455;-39
2021/06/28 12:53:30;;;;;;;2.75;2.35;;;47.90;22.60;;;;;;4328442;33;20095;-38